EEPU

Details ICAO EEPU (EPU)
Name PARNU
Region Estonia
Timezone Europe/Tallinn (UTC+3.0)
Plans Departing 9
Arriving 18
Stats Elevation 47 ft / 14 m (AMSL)
Location 58.418794° 24.472822°
Runways 1
Magnetic Variation 8.289° E
Sunrise 2018-05-25 01:37:49 UTC / 2018-05-25 04:37:49 Local
Sunset 2018-05-25 19:03:08 UTC / 2018-05-25 22:03:08 Local
Advertisement - Login to hide

Runways

ID Width Length Bearing (true) Bearing (mag) Surface Threshold Offset Overrun Length
03 148 ft / 45 m 8,122 ft / 2,475 m 35.28° 26.99° Concrete 0 ft / 0 m 0 ft / 0 m
21 148 ft / 45 m 8,122 ft / 2,475 m 215.30° 207.01° Concrete 0 ft / 0 m 0 ft / 0 m

Map

Weather


0- 5 10 15 20 25 30 35+ Temperature / ° C

Clouds and Precipitation
Forecast for 2018-05-25 12:00 UTC. Updated 24 minutes ago

Ground ~20,000 ft ~40,000 ft Winds

METAR

EEPU 251050Z 06006KT 360V130 CAVOK 22/09 Q1028

TAF

Not found

Frequencies

Tower 132.00 MHz AFIS
Warning: Do not use this data for real-world aviation or navigation. No guarantee of current accuracy is given.